createdAt,value
2018-03-21T00:01:20.138Z,2.60
2018-03-21T00:02:20.066Z,2.50
2018-03-21T00:04:13.338Z,2.20
2018-03-21T00:05:13.244Z,2.20
2018-03-21T00:07:06.534Z,2.80
2018-03-21T00:08:06.415Z,2.30
2018-03-21T00:09:59.669Z,2.30
2018-03-21T00:10:59.600Z,2.50
2018-03-21T00:12:52.870Z,2.10
2018-03-21T00:13:52.782Z,2.20
2018-03-21T00:15:46.026Z,2.60
2018-03-21T00:16:45.956Z,2.30
2018-03-21T00:18:39.226Z,2.50
2018-03-21T00:19:39.130Z,2.20
2018-03-21T00:21:32.385Z,2.00
2018-03-21T00:22:32.312Z,2.20
2018-03-21T00:24:25.581Z,2.20
2018-03-21T00:25:25.490Z,2.30
2018-03-21T00:27:18.751Z,2.50
2018-03-21T00:28:18.658Z,2.80
2018-03-21T00:30:11.911Z,1.80
2018-03-21T00:31:11.837Z,2.00
2018-03-21T00:33:05.107Z,2.60
2018-03-21T00:34:05.021Z,2.40
2018-03-21T00:35:58.380Z,2.50
2018-03-21T00:36:58.227Z,2.30
2018-03-21T00:38:51.499Z,2.10
2018-03-21T00:39:51.409Z,2.10
2018-03-21T00:41:44.666Z,2.10
2018-03-21T00:42:44.619Z,2.30
2018-03-21T00:44:37.857Z,2.30
2018-03-21T00:45:37.762Z,2.30
2018-03-21T00:47:31.147Z,2.30
2018-03-21T00:48:30.946Z,2.10
2018-03-21T00:50:24.311Z,2.20
2018-03-21T00:51:24.124Z,2.00
2018-03-21T00:53:17.394Z,2.40
2018-03-21T00:54:17.302Z,1.90
2018-03-21T00:56:10.560Z,2.30
2018-03-21T00:57:10.480Z,2.70
2018-03-21T00:59:03.864Z,2.40
2018-03-21T01:00:03.659Z,2.20
2018-03-21T01:01:56.922Z,2.10
2018-03-21T01:02:56.848Z,2.30
2018-03-21T01:04:50.118Z,2.40
2018-03-21T01:05:50.027Z,2.40
2018-03-21T01:07:43.297Z,2.30
2018-03-21T01:08:43.205Z,2.10
2018-03-21T01:10:36.457Z,1.80
2018-03-21T01:11:36.381Z,1.90
2018-03-21T01:13:30.501Z,2.40
2018-03-21T01:14:30.410Z,2.50
2018-03-21T01:16:23.776Z,2.90
2018-03-21T01:17:23.588Z,2.90
2018-03-21T01:19:16.857Z,2.50
2018-03-21T01:20:16.765Z,2.00
2018-03-21T01:22:10.022Z,2.40
2018-03-21T01:23:09.944Z,2.10
2018-03-21T01:25:03.328Z,2.90
2018-03-21T01:26:03.122Z,2.80
2018-03-21T01:27:56.394Z,2.20
2018-03-21T01:28:56.301Z,2.90
2018-03-21T01:30:49.555Z,2.30
2018-03-21T01:31:49.480Z,1.90
2018-03-21T01:33:42.752Z,1.80
2018-03-21T01:34:42.660Z,2.20
2018-03-21T01:36:35.903Z,2.10
2018-03-21T01:37:35.827Z,2.20
2018-03-21T01:39:29.209Z,2.10
2018-03-21T01:40:29.007Z,2.40
2018-03-21T01:42:22.302Z,2.70
2018-03-21T01:43:22.226Z,2.20
2018-03-21T01:45:15.497Z,2.40
2018-03-21T01:46:15.409Z,2.30
2018-03-21T01:48:09.676Z,2.40
2018-03-21T01:49:09.582Z,2.30
2018-03-21T01:51:02.950Z,2.10
2018-03-21T01:52:02.761Z,1.80
2018-03-21T01:53:56.032Z,2.10
2018-03-21T01:54:55.938Z,2.20
2018-03-21T01:56:49.303Z,2.40
2018-03-21T01:57:49.108Z,2.50
2018-03-21T01:59:42.491Z,2.60
2018-03-21T02:00:42.286Z,2.10
2018-03-21T02:02:35.536Z,2.10
2018-03-21T02:03:35.469Z,2.40
2018-03-21T02:05:28.733Z,2.00
2018-03-21T02:06:28.641Z,1.90
2018-03-21T02:08:21.912Z,2.10
2018-03-21T02:09:21.818Z,2.20
2018-03-21T02:11:15.182Z,2.10
2018-03-21T02:12:14.998Z,2.30
2018-03-21T02:14:08.322Z,2.50
2018-03-21T02:15:08.229Z,2.30
2018-03-21T02:17:01.592Z,2.00
2018-03-21T02:18:01.398Z,2.20
2018-03-21T02:19:54.780Z,2.10
2018-03-21T02:20:54.575Z,2.30
2018-03-21T02:22:47.831Z,2.50
2018-03-21T02:23:47.757Z,2.30
2018-03-21T02:25:41.027Z,2.60
2018-03-21T02:26:40.930Z,2.50
2018-03-21T02:28:34.200Z,2.50
2018-03-21T02:29:34.110Z,2.50
2018-03-21T02:31:27.475Z,2.70
2018-03-21T02:32:27.292Z,2.90
2018-03-21T02:34:20.670Z,2.80
2018-03-21T02:35:20.466Z,2.30
2018-03-21T02:37:13.715Z,2.90
2018-03-21T02:38:13.638Z,2.60
2018-03-21T02:40:06.907Z,2.40
2018-03-21T02:41:06.818Z,2.90
2018-03-21T02:43:00.068Z,2.80
2018-03-21T02:43:59.990Z,2.90
2018-03-21T02:45:53.375Z,2.30
2018-03-21T02:46:53.169Z,2.40
2018-03-21T02:48:46.441Z,2.60
2018-03-21T02:49:46.345Z,2.70
2018-03-21T02:51:39.598Z,2.60
2018-03-21T02:52:39.524Z,3.60
2018-03-21T02:54:32.794Z,2.60
2018-03-21T02:55:32.703Z,2.50
2018-03-21T02:57:25.957Z,2.90
2018-03-21T02:58:25.880Z,2.60
2018-03-21T03:00:19.262Z,2.50
2018-03-21T03:01:19.059Z,2.70
2018-03-21T03:03:12.310Z,2.70
2018-03-21T03:04:12.237Z,2.60
2018-03-21T03:06:05.630Z,2.90
2018-03-21T03:07:05.412Z,2.40
2018-03-21T03:08:58.679Z,2.90
2018-03-21T03:09:58.589Z,2.70
2018-03-21T03:11:51.839Z,2.80
2018-03-21T03:12:51.766Z,2.60
2018-03-21T03:14:45.150Z,2.60
2018-03-21T03:15:44.944Z,2.90
2018-03-21T03:17:38.307Z,3.30
2018-03-21T03:18:38.120Z,3.10
2018-03-21T03:20:31.502Z,2.70
2018-03-21T03:21:31.297Z,2.90
2018-03-21T03:23:24.577Z,2.90
2018-03-21T03:24:24.479Z,3.00
2018-03-21T03:26:17.754Z,3.10
2018-03-21T03:27:17.655Z,3.00
2018-03-21T03:29:10.924Z,3.00
2018-03-21T03:30:10.832Z,3.00
2018-03-21T03:32:04.200Z,3.20
2018-03-21T03:33:04.007Z,3.00
2018-03-21T03:34:57.398Z,3.00
2018-03-21T03:35:57.188Z,3.40
2018-03-21T03:37:50.439Z,3.00
2018-03-21T03:38:50.366Z,3.10
2018-03-21T03:40:43.635Z,3.30
2018-03-21T03:41:43.547Z,3.60
2018-03-21T03:43:36.831Z,3.40
2018-03-21T03:44:36.719Z,3.70
2018-03-21T03:46:30.084Z,3.30
2018-03-21T03:47:29.888Z,3.60
2018-03-21T03:49:23.161Z,3.90
2018-03-21T03:50:23.067Z,4.10
2018-03-21T03:52:16.319Z,3.80
2018-03-21T03:53:16.244Z,4.30
2018-03-21T03:55:09.515Z,3.90
2018-03-21T03:56:09.421Z,3.90
2018-03-21T03:58:02.787Z,4.10
2018-03-21T03:59:02.598Z,4.80
2018-03-21T04:00:55.979Z,4.10
2018-03-21T04:01:55.773Z,4.80
2018-03-21T04:03:49.065Z,4.50
2018-03-21T04:04:48.952Z,3.90
2018-03-21T04:06:42.194Z,4.70
2018-03-21T04:07:42.118Z,4.10
2018-03-21T04:09:35.502Z,4.30
2018-03-21T04:10:35.293Z,4.10
2018-03-21T04:12:28.659Z,4.90
2018-03-21T04:13:28.488Z,4.80
2018-03-21T04:15:21.739Z,4.60
2018-03-21T04:16:21.646Z,4.40
2018-03-21T04:18:14.896Z,4.80
2018-03-21T04:19:14.821Z,4.60
2018-03-21T04:21:08.094Z,4.30
2018-03-21T04:22:07.998Z,4.20
2018-03-21T04:24:01.401Z,4.50
2018-03-21T04:25:01.176Z,5.00
2018-03-21T04:26:54.537Z,5.00
2018-03-21T04:27:54.351Z,4.60
2018-03-21T04:29:47.622Z,4.90
2018-03-21T04:30:47.527Z,4.80
2018-03-21T04:32:40.781Z,4.60
2018-03-21T04:33:40.705Z,4.40
2018-03-21T04:35:33.974Z,5.40
2018-03-21T04:36:33.880Z,5.20
2018-03-21T04:38:27.133Z,5.10
2018-03-21T04:39:27.058Z,5.30
2018-03-21T04:41:20.440Z,5.10
2018-03-21T04:42:20.230Z,5.10
2018-03-21T04:44:14.499Z,5.50
2018-03-21T04:45:14.409Z,5.30
2018-03-21T04:47:07.661Z,5.10
2018-03-21T04:48:07.584Z,4.90
2018-03-21T04:50:00.966Z,4.90
2018-03-21T04:51:00.760Z,4.70
2018-03-21T04:52:54.125Z,5.10
2018-03-21T04:53:53.936Z,5.20
2018-03-21T04:55:47.204Z,5.00
2018-03-21T04:56:47.111Z,4.80
2018-03-21T04:58:40.362Z,4.90
2018-03-21T04:59:40.286Z,5.00
2018-03-21T05:01:33.670Z,4.80
2018-03-21T05:02:33.462Z,4.80
2018-03-21T05:04:26.732Z,5.10
2018-03-21T05:05:26.638Z,5.00
2018-03-21T05:07:19.883Z,5.00
2018-03-21T05:08:19.849Z,5.30
2018-03-21T05:10:13.074Z,5.10
2018-03-21T05:11:12.979Z,5.30
2018-03-21T05:13:06.300Z,5.00
2018-03-21T05:14:06.224Z,6.10
2018-03-21T05:15:59.506Z,5.60
2018-03-21T05:16:59.411Z,5.10
2018-03-21T05:18:52.773Z,5.70
2018-03-21T05:19:52.585Z,5.70
2018-03-21T05:21:45.967Z,6.40
2018-03-21T05:22:45.760Z,5.90
2018-03-21T05:24:39.030Z,5.60
2018-03-21T05:25:38.934Z,6.00
2018-03-21T05:27:32.189Z,6.10
2018-03-21T05:28:32.112Z,5.90
2018-03-21T05:30:25.379Z,6.50
2018-03-21T05:31:25.287Z,6.70
2018-03-21T05:33:19.537Z,6.90
2018-03-21T05:34:19.461Z,7.00
2018-03-21T05:36:12.843Z,7.10
2018-03-21T05:37:12.635Z,6.70
2018-03-21T05:39:05.881Z,7.30
2018-03-21T05:40:05.812Z,7.00
2018-03-21T05:41:59.080Z,7.10
2018-03-21T05:42:58.992Z,7.50
2018-03-21T05:44:52.319Z,7.60
2018-03-21T05:45:52.222Z,7.40
2018-03-21T05:47:45.475Z,7.80
2018-03-21T05:48:45.402Z,7.90
2018-03-21T05:50:38.668Z,8.10
2018-03-21T05:51:38.576Z,7.90
2018-03-21T05:53:31.937Z,8.20
2018-03-21T05:54:31.749Z,8.20
2018-03-21T05:56:25.133Z,7.70
2018-03-21T05:57:24.925Z,7.70
2018-03-21T05:59:18.170Z,7.70
2018-03-21T06:00:18.089Z,7.50
2018-03-21T06:02:11.360Z,8.10
2018-03-21T06:03:11.262Z,7.70
2018-03-21T06:05:04.648Z,8.00
2018-03-21T06:06:04.441Z,7.80
2018-03-21T06:07:57.681Z,8.60
2018-03-21T06:08:57.606Z,8.80
2018-03-21T06:10:50.880Z,9.50
2018-03-21T06:11:50.783Z,9.50
2018-03-21T06:13:44.031Z,9.60
2018-03-21T06:14:43.956Z,10.10
2018-03-21T06:16:37.338Z,10.20
2018-03-21T06:17:37.120Z,9.10
2018-03-21T06:19:30.362Z,9.80
2018-03-21T06:20:30.286Z,8.90
2018-03-21T06:22:23.555Z,8.30
2018-03-21T06:23:23.462Z,8.80
2018-03-21T06:25:16.732Z,10.20
2018-03-21T06:26:16.640Z,9.80
2018-03-21T06:28:09.888Z,9.90
2018-03-21T06:29:09.813Z,10.90
2018-03-21T06:31:03.194Z,9.90
2018-03-21T06:32:02.984Z,11.50
2018-03-21T06:33:56.300Z,12.20
2018-03-21T06:34:56.225Z,11.50
2018-03-21T06:36:49.486Z,12.90
2018-03-21T06:37:49.391Z,12.20
2018-03-21T06:39:42.639Z,12.20
2018-03-21T06:40:42.564Z,11.20
2018-03-21T06:42:35.832Z,11.80
2018-03-21T06:43:35.738Z,11.50
2018-03-21T06:45:29.012Z,10.50
2018-03-21T06:46:28.913Z,11.50
2018-03-21T06:48:22.274Z,11.40
2018-03-21T06:49:22.084Z,11.50
2018-03-21T06:51:15.344Z,10.70
2018-03-21T06:52:15.248Z,10.00
2018-03-21T06:54:08.489Z,10.10
2018-03-21T06:55:08.425Z,10.40
2018-03-21T06:57:01.680Z,9.70
2018-03-21T06:58:01.579Z,9.60
2018-03-21T06:59:54.818Z,9.70
2018-03-21T07:00:54.761Z,9.40
2018-03-21T07:02:48.125Z,10.60
2018-03-21T07:03:47.915Z,10.80
2018-03-21T07:05:41.298Z,10.70
2018-03-21T07:06:41.081Z,10.30
2018-03-21T07:08:34.330Z,11.80
2018-03-21T07:09:34.253Z,12.00
2018-03-21T07:11:27.514Z,11.70
2018-03-21T07:12:27.420Z,10.30
2018-03-21T07:14:20.669Z,9.70
2018-03-21T07:15:20.594Z,10.60
2018-03-21T07:17:13.847Z,10.00
2018-03-21T07:18:13.761Z,10.00
2018-03-21T07:20:07.012Z,10.10
2018-03-21T07:21:06.936Z,10.80
2018-03-21T07:23:00.318Z,10.10
2018-03-21T07:24:00.111Z,10.10
2018-03-21T07:25:53.503Z,9.90
2018-03-21T07:26:53.288Z,9.80
2018-03-21T07:28:46.538Z,10.30
2018-03-21T07:29:46.464Z,10.00
2018-03-21T07:31:39.847Z,9.20
2018-03-21T07:32:39.642Z,9.90
2018-03-21T07:34:33.003Z,10.20
2018-03-21T07:35:32.816Z,10.80
2018-03-21T07:37:25.703Z,10.80
2018-03-21T07:38:25.494Z,11.30
2018-03-21T07:40:18.733Z,12.10
2018-03-21T07:41:18.657Z,10.20
2018-03-21T07:43:11.929Z,10.80
2018-03-21T07:44:11.836Z,10.80
2018-03-21T07:46:05.108Z,11.00
2018-03-21T07:47:05.012Z,11.30
2018-03-21T07:48:58.307Z,9.90
2018-03-21T07:49:58.227Z,9.70
2018-03-21T07:51:51.497Z,10.40
2018-03-21T07:52:51.403Z,10.40
2018-03-21T07:54:44.781Z,11.90
2018-03-21T07:55:44.581Z,12.00
2018-03-21T07:57:37.851Z,11.40
2018-03-21T07:58:37.762Z,10.80
2018-03-21T08:00:31.010Z,10.80
2018-03-21T08:01:30.941Z,9.70
2018-03-21T08:03:24.319Z,10.30
2018-03-21T08:04:24.117Z,9.60
2018-03-21T08:06:17.497Z,9.50
2018-03-21T08:07:17.291Z,9.80
2018-03-21T08:09:10.534Z,10.20
2018-03-21T08:10:10.460Z,10.20
2018-03-21T08:12:03.731Z,9.50
2018-03-21T08:13:03.637Z,10.30
2018-03-21T08:14:56.941Z,9.70
2018-03-21T08:15:56.865Z,9.40
2018-03-21T08:17:50.203Z,9.60
2018-03-21T08:18:49.993Z,9.70
2018-03-21T08:20:43.361Z,9.10
2018-03-21T08:21:43.175Z,8.60
2018-03-21T08:23:36.446Z,9.70
2018-03-21T08:24:36.354Z,9.50
2018-03-21T08:26:29.619Z,8.90
2018-03-21T08:27:29.526Z,9.90
2018-03-21T08:29:22.891Z,8.40
2018-03-21T08:30:22.707Z,9.40
2018-03-21T08:32:16.092Z,9.50
2018-03-21T08:33:15.888Z,8.50
2018-03-21T08:35:09.142Z,8.50
2018-03-21T08:36:09.068Z,8.90
2018-03-21T08:38:02.341Z,9.40
2018-03-21T08:39:02.250Z,9.60
2018-03-21T08:40:55.515Z,9.30
2018-03-21T08:41:55.441Z,8.90
2018-03-21T08:43:48.715Z,10.20
2018-03-21T08:44:48.622Z,9.90
2018-03-21T08:46:41.888Z,9.30
2018-03-21T08:47:41.795Z,9.70
2018-03-21T08:49:35.164Z,9.80
2018-03-21T08:50:34.979Z,9.80
2018-03-21T08:52:28.242Z,10.00
2018-03-21T08:53:28.150Z,9.90
2018-03-21T08:55:21.407Z,10.00
2018-03-21T08:56:21.334Z,9.80
2018-03-21T08:58:14.606Z,9.70
2018-03-21T08:59:14.515Z,10.30
2018-03-21T09:01:07.770Z,10.20
2018-03-21T09:02:07.697Z,10.70
2018-03-21T09:04:01.083Z,9.30
2018-03-21T09:05:00.880Z,9.80
2018-03-21T09:06:54.269Z,10.50
2018-03-21T09:07:54.058Z,9.50
2018-03-21T09:09:47.310Z,9.60
2018-03-21T09:10:47.241Z,9.50
2018-03-21T09:12:40.521Z,8.20
2018-03-21T09:13:40.428Z,7.90
2018-03-21T09:15:33.792Z,7.40
2018-03-21T09:16:33.606Z,7.40
2018-03-21T09:18:26.881Z,8.90
2018-03-21T09:19:26.790Z,8.70
2018-03-21T09:21:20.050Z,9.20
2018-03-21T09:22:19.977Z,8.60
2018-03-21T09:24:13.250Z,9.40
2018-03-21T09:25:13.159Z,9.00
2018-03-21T09:27:06.438Z,7.70
2018-03-21T09:28:06.347Z,7.60
2018-03-21T09:29:59.716Z,7.70
2018-03-21T09:30:59.523Z,8.20
2018-03-21T09:32:52.789Z,6.80
2018-03-21T09:33:52.705Z,6.90
2018-03-21T09:35:45.959Z,6.80
2018-03-21T09:36:45.887Z,7.00
2018-03-21T09:38:39.166Z,7.10
2018-03-21T09:39:39.074Z,7.40
2018-03-21T09:41:32.333Z,7.20
2018-03-21T09:42:32.260Z,6.90
2018-03-21T09:44:25.649Z,6.40
2018-03-21T09:45:25.448Z,6.70
2018-03-21T09:47:19.718Z,6.50
2018-03-21T09:48:19.656Z,6.90
2018-03-21T09:50:12.883Z,6.50
2018-03-21T09:51:12.813Z,6.40
2018-03-21T09:53:06.328Z,6.30
2018-03-21T09:54:06.000Z,6.50
2018-03-21T09:55:59.374Z,6.10
2018-03-21T09:56:59.232Z,6.10
2018-03-21T09:58:52.513Z,6.30
2018-03-21T09:59:52.424Z,6.10
2018-03-21T10:01:45.684Z,6.30
2018-03-21T10:02:45.615Z,6.40
2018-03-21T10:04:39.005Z,6.00
2018-03-21T10:05:38.805Z,6.40
2018-03-21T10:07:32.198Z,6.00
2018-03-21T10:08:32.000Z,5.30
2018-03-21T10:10:25.307Z,5.70
2018-03-21T10:11:25.263Z,5.40
2018-03-21T10:13:18.521Z,5.30
2018-03-21T10:14:18.444Z,5.50
2018-03-21T10:16:11.735Z,5.10
2018-03-21T10:17:11.622Z,5.50
2018-03-21T10:19:04.904Z,5.50
2018-03-21T10:20:04.817Z,4.90
2018-03-21T10:21:58.078Z,5.20
2018-03-21T10:22:58.005Z,6.30
2018-03-21T10:24:51.324Z,5.50
2018-03-21T10:25:51.235Z,5.10
2018-03-21T10:27:44.516Z,4.90
2018-03-21T10:28:44.427Z,4.70
2018-03-21T10:30:37.688Z,4.70
2018-03-21T10:31:37.617Z,4.40
2018-03-21T10:33:31.006Z,4.60
2018-03-21T10:34:30.800Z,4.80
2018-03-21T10:36:24.170Z,4.90
2018-03-21T10:37:23.991Z,5.30
2018-03-21T10:39:17.380Z,4.70
2018-03-21T10:40:17.238Z,5.30
2018-03-21T10:42:10.495Z,4.50
2018-03-21T10:43:10.428Z,5.00
2018-03-21T10:45:03.721Z,4.50
2018-03-21T10:46:03.617Z,4.60
2018-03-21T10:47:56.898Z,5.00
2018-03-21T10:48:56.846Z,4.90
2018-03-21T10:50:50.063Z,4.70
2018-03-21T10:51:49.993Z,4.90
2018-03-21T10:53:43.388Z,5.00
2018-03-21T10:54:43.235Z,4.50
2018-03-21T10:56:36.607Z,4.80
2018-03-21T10:57:36.412Z,5.00
2018-03-21T10:59:29.710Z,4.80
2018-03-21T11:00:29.622Z,5.50
2018-03-21T11:02:23.025Z,6.30
2018-03-21T11:03:22.814Z,5.40
2018-03-21T11:05:16.098Z,5.20
2018-03-21T11:06:16.003Z,5.40
2018-03-21T11:08:09.324Z,5.90
2018-03-21T11:09:09.233Z,6.30
2018-03-21T11:11:02.603Z,6.10
2018-03-21T11:12:02.424Z,6.30
2018-03-21T11:13:55.812Z,5.90
2018-03-21T11:14:55.622Z,6.70
2018-03-21T11:16:48.879Z,5.80
2018-03-21T11:17:48.808Z,6.20
2018-03-21T11:19:42.084Z,6.80
2018-03-21T11:20:41.999Z,6.50
2018-03-21T11:22:35.368Z,6.50
2018-03-21T11:23:35.188Z,7.00
2018-03-21T11:25:28.469Z,7.20
2018-03-21T11:26:28.379Z,7.10
2018-03-21T11:28:21.658Z,5.90
2018-03-21T11:29:21.569Z,6.10
2018-03-21T11:31:14.945Z,6.30
2018-03-21T11:32:14.760Z,6.90
2018-03-21T11:34:08.070Z,6.20
2018-03-21T11:35:07.951Z,6.20
2018-03-21T11:37:01.212Z,6.70
2018-03-21T11:38:01.141Z,6.30
2018-03-21T11:39:54.523Z,6.60
2018-03-21T11:40:54.314Z,6.30
2018-03-21T11:42:47.686Z,6.30
2018-03-21T11:43:47.505Z,5.70
2018-03-21T11:45:40.792Z,6.30
2018-03-21T11:46:40.699Z,6.20
2018-03-21T11:48:33.977Z,6.50
2018-03-21T11:49:33.894Z,6.70
2018-03-21T11:51:27.260Z,6.10
2018-03-21T11:52:27.080Z,5.90
2018-03-21T11:54:20.363Z,7.10
2018-03-21T11:55:20.278Z,6.60
2018-03-21T11:57:13.526Z,5.70
2018-03-21T11:58:13.459Z,6.10
2018-03-21T12:00:06.736Z,6.90
2018-03-21T12:01:06.650Z,7.80
2018-03-21T12:03:00.023Z,7.80
2018-03-21T12:03:59.861Z,7.20
2018-03-21T12:05:53.141Z,7.40
2018-03-21T12:06:53.052Z,6.50
2018-03-21T12:08:46.380Z,6.40
2018-03-21T12:09:46.244Z,6.40
2018-03-21T12:11:39.506Z,6.30
2018-03-21T12:12:39.435Z,6.10
2018-03-21T12:14:32.714Z,6.10
2018-03-21T12:15:32.625Z,6.00
2018-03-21T12:17:25.995Z,6.30
2018-03-21T12:18:25.807Z,6.30
2018-03-21T12:20:19.080Z,6.00
2018-03-21T12:21:18.987Z,6.30
2018-03-21T12:23:12.239Z,6.10
2018-03-21T12:24:12.169Z,5.60
2018-03-21T12:26:05.448Z,5.50
2018-03-21T12:27:05.359Z,6.10
2018-03-21T12:28:58.749Z,5.50
2018-03-21T12:29:58.551Z,5.80
2018-03-21T12:31:52.809Z,5.30
2018-03-21T12:32:52.755Z,5.90
2018-03-21T12:34:46.008Z,6.30
2018-03-21T12:35:45.921Z,5.80
2018-03-21T12:37:39.181Z,6.10
2018-03-21T12:38:39.109Z,5.50
2018-03-21T12:40:32.416Z,5.70
2018-03-21T12:41:32.300Z,5.60
2018-03-21T12:43:25.560Z,5.60
2018-03-21T12:44:25.536Z,5.90
2018-03-21T12:46:18.767Z,5.10
2018-03-21T12:47:18.678Z,5.40
2018-03-21T12:49:11.957Z,5.40
2018-03-21T12:50:11.925Z,5.70
2018-03-21T12:52:05.126Z,4.90
2018-03-21T12:53:05.060Z,5.20
2018-03-21T12:54:58.333Z,5.00
2018-03-21T12:55:58.348Z,5.30
2018-03-21T12:57:52.511Z,5.60
2018-03-21T12:58:52.436Z,5.20
2018-03-21T13:00:45.726Z,5.00
2018-03-21T13:01:45.635Z,5.30
2018-03-21T13:03:38.896Z,5.10
2018-03-21T13:04:38.825Z,5.00
2018-03-21T13:06:32.093Z,4.90
2018-03-21T13:07:32.003Z,4.80
2018-03-21T13:09:25.401Z,5.30
2018-03-21T13:10:25.192Z,5.40
2018-03-21T13:12:18.451Z,4.70
2018-03-21T13:13:18.385Z,4.80
2018-03-21T13:15:11.771Z,4.80
2018-03-21T13:16:11.579Z,4.90
2018-03-21T13:18:04.840Z,4.50
2018-03-21T13:19:04.765Z,4.30
2018-03-21T13:20:58.041Z,4.90
2018-03-21T13:21:57.953Z,4.90
2018-03-21T13:23:51.215Z,4.90
2018-03-21T13:24:51.144Z,5.10
2018-03-21T13:26:44.416Z,4.90
2018-03-21T13:27:44.327Z,5.20
2018-03-21T13:29:37.600Z,4.50
2018-03-21T13:30:37.506Z,5.00
2018-03-21T13:32:30.758Z,4.80
2018-03-21T13:33:30.688Z,5.20
2018-03-21T13:35:24.078Z,4.80
2018-03-21T13:36:23.491Z,4.90
2018-03-21T13:38:16.741Z,5.10
2018-03-21T13:39:16.670Z,5.40
2018-03-21T13:41:09.937Z,5.60
2018-03-21T13:42:09.856Z,5.20
2018-03-21T13:44:03.219Z,5.60
2018-03-21T13:45:03.032Z,4.90
2018-03-21T13:46:56.300Z,5.10
2018-03-21T13:47:56.210Z,5.30
2018-03-21T13:49:49.483Z,5.50
2018-03-21T13:50:49.395Z,5.70
2018-03-21T13:52:42.641Z,5.50
2018-03-21T13:53:42.578Z,5.00
2018-03-21T13:55:35.843Z,5.70
2018-03-21T13:56:35.760Z,5.90
2018-03-21T13:58:29.012Z,5.00
2018-03-21T13:59:28.936Z,4.40
2018-03-21T14:01:22.329Z,4.70
2018-03-21T14:02:22.121Z,4.70
2018-03-21T14:04:15.491Z,5.50
2018-03-21T14:05:15.301Z,5.00
2018-03-21T14:07:08.690Z,5.20
2018-03-21T14:08:08.483Z,4.80
2018-03-21T14:10:01.751Z,4.60
2018-03-21T14:11:01.697Z,4.90
2018-03-21T14:12:55.035Z,4.70
2018-03-21T14:13:54.849Z,5.10
2018-03-21T14:15:48.113Z,4.60
2018-03-21T14:16:48.030Z,5.50
2018-03-21T14:18:42.396Z,6.20
2018-03-21T14:19:42.205Z,7.30
2018-03-21T14:21:35.474Z,5.20
2018-03-21T14:22:35.387Z,5.70
2018-03-21T14:24:28.637Z,5.30
2018-03-21T14:25:28.568Z,5.50
2018-03-21T14:27:22.458Z,4.40
2018-03-21T14:28:21.754Z,5.00
2018-03-21T14:30:15.141Z,4.70
2018-03-21T14:31:14.933Z,4.80
2018-03-21T14:33:08.304Z,5.60
2018-03-21T14:34:08.116Z,4.90
2018-03-21T14:36:01.386Z,4.80
2018-03-21T14:37:01.313Z,5.10
2018-03-21T14:38:54.551Z,5.30
2018-03-21T14:39:54.481Z,5.10
2018-03-21T14:41:47.871Z,4.60
2018-03-21T14:42:47.663Z,5.10
2018-03-21T14:44:41.035Z,5.00
2018-03-21T14:45:40.865Z,4.90
2018-03-21T14:47:34.235Z,5.20
2018-03-21T14:48:34.027Z,5.00
2018-03-21T14:50:27.416Z,5.60
2018-03-21T14:51:27.239Z,5.40
2018-03-21T14:53:20.502Z,5.10
2018-03-21T14:54:20.416Z,4.60
2018-03-21T14:56:13.697Z,4.90
2018-03-21T14:57:13.610Z,5.10
2018-03-21T14:59:06.979Z,4.60
2018-03-21T15:00:06.793Z,5.10
2018-03-21T15:02:00.911Z,4.80
2018-03-21T15:03:00.820Z,4.90
2018-03-21T15:04:54.192Z,5.10
2018-03-21T15:05:54.009Z,4.70
2018-03-21T15:07:47.326Z,4.90
2018-03-21T15:08:47.236Z,5.10
2018-03-21T15:10:40.527Z,5.00
2018-03-21T15:11:40.420Z,5.80
2018-03-21T15:13:33.671Z,5.30
2018-03-21T15:14:33.600Z,5.00
2018-03-21T15:16:26.991Z,5.40
2018-03-21T15:17:26.785Z,5.70
2018-03-21T15:19:20.200Z,4.80
2018-03-21T15:20:19.966Z,5.10
2018-03-21T15:22:13.336Z,5.50
2018-03-21T15:23:13.251Z,7.90
2018-03-21T15:25:06.500Z,4.80
2018-03-21T15:26:06.432Z,5.00
2018-03-21T15:27:59.720Z,5.40
2018-03-21T15:28:59.660Z,5.80
2018-03-21T15:30:52.904Z,5.40
2018-03-21T15:31:52.816Z,5.20
2018-03-21T15:33:45.657Z,5.60
2018-03-21T15:34:45.783Z,5.40
2018-03-21T15:36:38.838Z,5.30
2018-03-21T15:37:38.747Z,5.00
2018-03-21T15:39:32.119Z,5.20
2018-03-21T15:40:31.928Z,5.10
2018-03-21T15:42:25.196Z,5.00
2018-03-21T15:43:25.110Z,5.00
2018-03-21T15:45:18.376Z,5.00
2018-03-21T15:46:18.319Z,5.50
2018-03-21T15:48:11.197Z,6.10
2018-03-21T15:49:11.030Z,5.20
2018-03-21T15:51:05.419Z,4.40
2018-03-21T15:52:05.236Z,4.70
2018-03-21T15:53:58.622Z,4.90
2018-03-21T15:54:58.417Z,5.50
2018-03-21T15:56:51.689Z,5.60
2018-03-21T15:57:51.598Z,4.80
2018-03-21T15:59:44.854Z,5.40
2018-03-21T16:00:44.780Z,5.20
2018-03-21T16:02:38.046Z,5.00
2018-03-21T16:03:37.958Z,5.20
2018-03-21T16:05:32.391Z,5.10
2018-03-21T16:06:32.138Z,5.10
2018-03-21T16:08:25.526Z,4.80
2018-03-21T16:09:25.318Z,4.70
2018-03-21T16:11:18.585Z,5.30
2018-03-21T16:12:18.497Z,5.20
2018-03-21T16:14:11.867Z,5.00
2018-03-21T16:15:11.682Z,5.70
2018-03-21T16:17:05.069Z,5.20
2018-03-21T16:18:04.864Z,5.20
2018-03-21T16:19:58.234Z,4.80
2018-03-21T16:20:58.041Z,5.40
2018-03-21T16:22:51.324Z,5.90
2018-03-21T16:23:51.234Z,5.70
2018-03-21T16:25:44.525Z,5.90
2018-03-21T16:26:44.415Z,5.40
2018-03-21T16:28:37.786Z,5.00
2018-03-21T16:29:37.601Z,5.20
2018-03-21T16:31:30.986Z,5.40
2018-03-21T16:32:30.774Z,5.30
2018-03-21T16:34:24.178Z,5.70
2018-03-21T16:35:23.954Z,5.90
2018-03-21T16:37:18.342Z,5.30
2018-03-21T16:38:18.134Z,4.70
2018-03-21T16:40:11.383Z,5.50
2018-03-21T16:41:11.313Z,5.40
2018-03-21T16:43:04.582Z,5.30
2018-03-21T16:44:04.493Z,5.40
2018-03-21T16:45:57.782Z,5.30
2018-03-21T16:46:57.671Z,5.30
2018-03-21T16:48:50.922Z,5.50
2018-03-21T16:49:50.852Z,5.50
2018-03-21T16:51:44.120Z,5.80
2018-03-21T16:52:44.050Z,5.10
2018-03-21T16:54:37.406Z,5.70
2018-03-21T16:55:37.235Z,5.70
2018-03-21T16:57:30.504Z,5.70
2018-03-21T16:58:30.416Z,5.80
2018-03-21T17:00:23.673Z,5.30
2018-03-21T17:01:23.603Z,6.20
2018-03-21T17:03:16.884Z,6.20
2018-03-21T17:04:16.793Z,5.90
2018-03-21T17:06:10.061Z,6.30
2018-03-21T17:07:09.971Z,5.60
2018-03-21T17:09:03.361Z,7.40
2018-03-21T17:10:03.147Z,6.10
2018-03-21T17:11:56.540Z,6.10
2018-03-21T17:12:56.330Z,5.80
2018-03-21T17:14:49.581Z,5.70
2018-03-21T17:15:49.511Z,6.30
2018-03-21T17:17:42.901Z,6.10
2018-03-21T17:18:42.734Z,5.90
2018-03-21T17:20:35.950Z,5.80
2018-03-21T17:21:35.882Z,6.40
2018-03-21T17:23:29.158Z,6.00
2018-03-21T17:24:29.069Z,6.50
2018-03-21T17:26:22.378Z,5.80
2018-03-21T17:27:22.276Z,5.90
2018-03-21T17:29:15.547Z,5.60
2018-03-21T17:30:15.484Z,6.10
2018-03-21T17:32:08.753Z,5.80
2018-03-21T17:33:08.662Z,5.30
2018-03-21T17:35:01.957Z,6.20
2018-03-21T17:36:01.890Z,5.70
2018-03-21T17:37:56.240Z,6.30
2018-03-21T17:38:56.041Z,6.90
2018-03-21T17:40:49.310Z,6.40
2018-03-21T17:41:49.238Z,6.80
2018-03-21T17:43:42.515Z,6.30
2018-03-21T17:44:42.426Z,6.10
2018-03-21T17:46:35.707Z,6.90
2018-03-21T17:47:35.605Z,6.90
2018-03-21T17:49:28.977Z,7.70
2018-03-21T17:50:28.794Z,7.20
2018-03-21T17:52:22.072Z,7.30
2018-03-21T17:53:21.983Z,8.70
2018-03-21T17:55:16.261Z,7.90
2018-03-21T17:56:16.189Z,8.90
2018-03-21T17:58:09.470Z,9.50
2018-03-21T17:59:09.378Z,9.50
2018-03-21T18:01:02.638Z,9.30
2018-03-21T18:02:02.567Z,9.60
2018-03-21T18:03:55.843Z,10.20
2018-03-21T18:04:55.756Z,9.80
2018-03-21T18:06:49.023Z,10.80
2018-03-21T18:07:48.935Z,11.20
2018-03-21T18:09:42.194Z,11.30
2018-03-21T18:10:42.123Z,11.60
2018-03-21T18:12:35.396Z,11.10
2018-03-21T18:13:35.311Z,12.30
2018-03-21T18:15:28.683Z,11.60
2018-03-21T18:16:28.496Z,11.50
2018-03-21T18:18:21.777Z,12.20
2018-03-21T18:19:21.688Z,12.10
2018-03-21T18:21:14.944Z,11.70
2018-03-21T18:22:14.874Z,12.00
2018-03-21T18:24:09.150Z,11.90
2018-03-21T18:25:09.067Z,11.40
2018-03-21T18:27:02.448Z,12.90
2018-03-21T18:28:02.239Z,12.20
2018-03-21T18:29:55.497Z,12.10
2018-03-21T18:30:55.438Z,12.20
2018-03-21T18:32:48.706Z,11.80
2018-03-21T18:33:48.613Z,11.60
2018-03-21T18:35:41.886Z,11.40
2018-03-21T18:36:41.800Z,11.70
2018-03-21T18:38:35.102Z,11.00
2018-03-21T18:39:35.000Z,11.80
2018-03-21T18:41:28.377Z,11.80
2018-03-21T18:42:28.186Z,11.70
2018-03-21T18:44:21.577Z,11.10
2018-03-21T18:45:21.393Z,11.80
2018-03-21T18:47:15.659Z,12.30
2018-03-21T18:48:15.570Z,11.90
2018-03-21T18:50:08.942Z,11.10
2018-03-21T18:51:08.745Z,12.20
2018-03-21T18:53:02.023Z,11.50
2018-03-21T18:54:01.937Z,11.10
2018-03-21T18:55:55.201Z,11.70
2018-03-21T18:56:55.173Z,11.60
2018-03-21T18:58:48.413Z,11.70
2018-03-21T18:59:48.320Z,11.70
2018-03-21T19:01:41.591Z,11.00
2018-03-21T19:02:41.518Z,11.70
2018-03-21T19:04:34.905Z,11.50
2018-03-21T19:05:34.722Z,11.70
2018-03-21T19:07:27.979Z,10.90